createdAt,value
2022-09-25T00:02:50.716Z,16.83
2022-09-25T00:07:53.286Z,13.55
2022-09-25T00:12:55.808Z,16.30
2022-09-25T00:17:59.626Z,15.50
2022-09-25T00:23:02.339Z,12.70
2022-09-25T00:28:06.066Z,15.98
2022-09-25T00:33:10.069Z,12.13
2022-09-25T00:38:12.520Z,18.45
2022-09-25T00:43:15.934Z,17.33
2022-09-25T00:48:19.803Z,16.73
2022-09-25T00:53:28.324Z,16.80
2022-09-25T00:58:34.127Z,15.30
2022-09-25T01:03:39.350Z,15.88
2022-09-25T01:08:42.958Z,14.30
2022-09-25T01:13:45.939Z,11.60
2022-09-25T01:19:02.407Z,13.98
2022-09-25T01:24:22.024Z,13.48
2022-09-25T01:29:31.611Z,13.80
2022-09-25T01:34:42.223Z,13.82
2022-09-25T01:39:48.143Z,13.55
2022-09-25T01:44:59.052Z,13.02
2022-09-25T01:50:04.727Z,11.77
2022-09-25T01:55:10.959Z,12.93
2022-09-25T02:00:19.208Z,12.57
2022-09-25T02:05:26.939Z,12.80
2022-09-25T02:10:34.949Z,13.88
2022-09-25T02:15:43.998Z,12.15
2022-09-25T02:20:50.379Z,13.15
2022-09-25T02:26:02.241Z,12.68
2022-09-25T02:31:11.168Z,12.90
2022-09-25T02:36:18.726Z,12.20
2022-09-25T02:41:34.904Z,13.45
2022-09-25T02:46:45.300Z,11.88
2022-09-25T02:51:56.220Z,12.35
2022-09-25T02:57:07.085Z,12.35
2022-09-25T03:02:13.033Z,11.30
2022-09-25T03:07:16.969Z,13.07
2022-09-25T03:12:19.509Z,14.70
2022-09-25T03:17:23.702Z,13.82
2022-09-25T03:22:26.134Z,14.63
2022-09-25T03:27:30.036Z,14.18
2022-09-25T03:32:33.879Z,14.75
2022-09-25T03:37:36.412Z,13.87
2022-09-25T03:42:39.176Z,15.13
2022-09-25T03:47:42.930Z,14.55
2022-09-25T03:52:45.436Z,11.43
2022-09-25T03:57:48.133Z,14.57
2022-09-25T04:02:52.087Z,14.38
2022-09-25T04:07:54.672Z,14.05
2022-09-25T04:12:57.449Z,13.85
2022-09-25T04:18:05.910Z,13.25
2022-09-25T04:23:08.802Z,13.18
2022-09-25T04:28:11.426Z,13.73
2022-09-25T04:33:47.497Z,13.60
2022-09-25T04:38:50.634Z,13.00
2022-09-25T04:43:53.093Z,13.70
2022-09-25T04:48:59.271Z,13.85
2022-09-25T04:54:01.789Z,13.85
2022-09-25T04:59:04.437Z,14.05
2022-09-25T05:04:09.012Z,13.35
2022-09-25T05:09:11.842Z,13.73
2022-09-25T05:14:14.394Z,14.57
2022-09-25T05:19:18.207Z,14.63
2022-09-25T05:24:20.864Z,14.27
2022-09-25T05:29:23.565Z,13.88
2022-09-25T05:34:28.080Z,15.07
2022-09-25T05:44:33.203Z,15.15
2022-09-25T05:49:37.196Z,16.52
2022-09-25T05:54:39.650Z,16.50
2022-09-25T05:59:42.094Z,15.77
2022-09-25T06:04:45.865Z,16.27
2022-09-25T06:09:48.271Z,16.10
2022-09-25T06:14:51.686Z,15.65
2022-09-25T06:19:55.588Z,13.60
2022-09-25T06:24:58.060Z,10.68
2022-09-25T06:30:00.977Z,13.93
2022-09-25T06:35:05.632Z,13.68
2022-09-25T06:40:09.851Z,14.40
2022-09-25T06:45:12.596Z,13.70
2022-09-25T06:50:16.449Z,13.27
2022-09-25T06:55:18.907Z,14.93
2022-09-25T07:00:21.503Z,13.75
2022-09-25T07:05:25.540Z,13.30
2022-09-25T07:10:28.622Z,15.50
2022-09-25T07:15:31.200Z,15.07
2022-09-25T07:20:35.264Z,14.40
2022-09-25T07:25:37.717Z,14.77
2022-09-25T07:30:40.400Z,14.45
2022-09-25T07:35:44.245Z,15.05
2022-09-25T07:40:53.790Z,15.60
2022-09-25T07:45:56.389Z,17.33
2022-09-25T07:51:02.535Z,16.98
2022-09-25T07:56:07.094Z,19.23
2022-09-25T08:01:24.781Z,23.33
2022-09-25T08:06:29.015Z,26.80
2022-09-25T08:11:31.646Z,24.67
2022-09-25T08:16:34.139Z,22.70
2022-09-25T08:21:38.000Z,21.27
2022-09-25T08:26:40.539Z,21.40
2022-09-25T08:31:43.882Z,21.67
2022-09-25T08:36:51.873Z,22.05
2022-09-25T08:41:56.212Z,20.85
2022-09-25T08:52:24.614Z,15.45
2022-09-25T08:57:35.258Z,15.65
2022-09-25T09:02:42.710Z,16.17
2022-09-25T09:07:52.069Z,14.50
2022-09-25T09:12:59.486Z,14.18
2022-09-25T09:18:06.678Z,11.35
2022-09-25T09:23:17.525Z,12.27
2022-09-25T09:28:46.488Z,11.30
2022-09-25T09:33:58.965Z,9.80
2022-09-25T09:39:11.646Z,10.15
2022-09-25T09:44:34.756Z,11.05
2022-09-25T09:49:45.242Z,10.98
2022-09-25T09:54:53.808Z,11.48
2022-09-25T10:00:04.689Z,10.65
2022-09-25T10:05:13.778Z,9.77
2022-09-25T10:10:19.622Z,9.30
2022-09-25T10:15:33.820Z,10.50
2022-09-25T10:20:42.075Z,9.98
2022-09-25T10:25:46.050Z,10.05
2022-09-25T10:30:51.423Z,9.60
2022-09-25T10:35:56.250Z,10.90
2022-09-25T10:41:04.408Z,11.45
2022-09-25T10:46:12.113Z,11.13
2022-09-25T10:51:17.532Z,9.38
2022-09-25T10:56:27.736Z,9.70
2022-09-25T11:01:35.905Z,9.00
2022-09-25T11:06:45.082Z,10.60
2022-09-25T11:11:50.399Z,9.55
2022-09-25T11:16:57.451Z,10.07
2022-09-25T11:22:16.889Z,9.75
2022-09-25T11:27:27.407Z,8.73
2022-09-25T11:32:35.580Z,10.75
2022-09-25T11:37:42.195Z,10.80
2022-09-25T11:42:53.050Z,11.73
2022-09-25T11:48:02.195Z,10.57
2022-09-25T11:53:16.069Z,8.05
2022-09-25T11:58:43.010Z,8.60
2022-09-25T12:04:04.991Z,7.78
2022-09-25T12:09:20.264Z,7.25
2022-09-25T12:14:28.590Z,6.93
2022-09-25T12:19:39.568Z,7.70
2022-09-25T12:24:55.386Z,8.30
2022-09-25T12:30:11.771Z,8.73
2022-09-25T12:35:26.889Z,7.90
2022-09-25T12:40:34.427Z,7.20
2022-09-25T12:45:43.091Z,7.20
2022-09-25T12:50:52.616Z,6.75
2022-09-25T12:56:04.005Z,8.60
2022-09-25T13:01:14.279Z,7.60
2022-09-25T13:06:23.351Z,9.25
2022-09-25T13:11:38.253Z,9.48
2022-09-25T13:16:42.076Z,8.70
2022-09-25T13:21:44.848Z,9.18
2022-09-25T13:26:52.773Z,7.75
2022-09-25T13:32:06.111Z,7.60
2022-09-25T13:37:11.404Z,7.80
2022-09-25T13:42:21.514Z,7.40
2022-09-25T13:47:57.214Z,7.25
2022-09-25T13:53:20.331Z,6.60
2022-09-25T14:03:35.759Z,6.93
2022-09-25T14:08:48.768Z,5.90
2022-09-25T14:13:56.757Z,5.97
2022-09-25T14:19:04.506Z,6.50
2022-09-25T14:24:20.147Z,7.03
2022-09-25T14:29:27.929Z,5.40
2022-09-25T14:34:45.984Z,6.60
2022-09-25T14:39:58.626Z,6.00
2022-09-25T14:45:20.973Z,7.10
2022-09-25T14:50:32.832Z,6.85
2022-09-25T14:55:38.487Z,8.07
2022-09-25T15:00:49.142Z,6.85
2022-09-25T15:05:53.322Z,7.50
2022-09-25T15:11:11.985Z,7.25
2022-09-25T15:16:35.819Z,6.75
2022-09-25T15:21:43.779Z,6.40
2022-09-25T15:26:50.615Z,7.28
2022-09-25T15:31:53.460Z,6.97
2022-09-25T15:37:18.869Z,6.65
2022-09-25T15:42:21.962Z,7.50
2022-09-25T15:47:50.885Z,6.35
2022-09-25T15:52:56.667Z,4.57
2022-09-25T15:58:08.335Z,4.70
2022-09-25T16:03:35.106Z,4.30
2022-09-25T16:08:42.163Z,4.82
2022-09-25T16:13:48.639Z,4.97
2022-09-25T16:18:54.409Z,4.57
2022-09-25T16:24:00.828Z,4.45
2022-09-25T16:29:22.161Z,4.13
2022-09-25T16:34:30.930Z,3.80
2022-09-25T16:39:37.372Z,4.35
2022-09-25T16:44:46.948Z,5.18
2022-09-25T16:49:50.112Z,5.43
2022-09-25T16:54:57.566Z,5.13
2022-09-25T17:00:00.097Z,4.88
2022-09-25T17:05:04.753Z,4.82
2022-09-25T17:10:16.001Z,4.53
2022-09-25T17:15:22.172Z,5.43
2022-09-25T17:20:26.140Z,4.57
2022-09-25T17:25:39.242Z,4.90
2022-09-25T17:30:43.223Z,4.60
2022-09-25T17:35:49.469Z,4.15
2022-09-25T17:40:54.969Z,4.60
2022-09-25T17:45:58.973Z,3.92
2022-09-25T17:51:02.900Z,4.47
2022-09-25T17:56:07.469Z,4.20
2022-09-25T18:01:14.722Z,4.35
2022-09-25T18:06:17.206Z,4.30
2022-09-25T18:11:21.707Z,3.85
2022-09-25T18:16:28.874Z,4.25
2022-09-25T18:21:48.968Z,3.90
2022-09-25T18:26:54.164Z,4.38
2022-09-25T18:31:56.622Z,4.07
2022-09-25T18:36:59.144Z,4.50
2022-09-25T18:42:03.145Z,4.35
2022-09-25T18:47:06.611Z,4.63
2022-09-25T18:52:09.148Z,4.83
2022-09-25T18:57:13.818Z,3.95
2022-09-25T19:02:20.910Z,5.03
2022-09-25T19:07:24.204Z,4.32
2022-09-25T19:12:28.070Z,4.85
2022-09-25T19:17:31.076Z,5.40
2022-09-25T19:22:33.841Z,5.75
2022-09-25T19:27:37.999Z,5.63
2022-09-25T19:32:40.509Z,7.50
2022-09-25T19:37:42.992Z,9.52
2022-09-25T19:42:47.612Z,7.90
2022-09-25T19:47:50.064Z,9.05
2022-09-25T19:52:52.748Z,8.80
2022-09-25T19:57:56.556Z,8.20
2022-09-25T20:02:59.093Z,7.15
2022-09-25T20:08:02.159Z,8.10
2022-09-25T20:13:06.651Z,8.15
2022-09-25T20:23:11.633Z,7.30
2022-09-25T20:28:17.066Z,7.07
2022-09-25T20:33:19.540Z,7.40
2022-09-25T20:38:22.063Z,7.72
2022-09-25T20:43:26.093Z,8.18
2022-09-25T20:48:28.529Z,7.65
2022-09-25T20:53:31.057Z,7.45
2022-09-25T20:58:35.741Z,8.07
2022-09-25T21:03:40.186Z,8.70
2022-09-25T21:13:50.436Z,9.10
2022-09-25T21:18:56.567Z,8.20
2022-09-25T21:23:59.704Z,8.40
2022-09-25T21:29:05.765Z,7.90
2022-09-25T21:34:12.035Z,8.85
2022-09-25T21:39:14.917Z,7.43
2022-09-25T21:44:21.372Z,7.90
2022-09-25T21:49:23.892Z,8.73
2022-09-25T21:54:26.407Z,8.73
2022-09-25T21:59:30.260Z,8.93
2022-09-25T22:04:32.704Z,8.95
2022-09-25T22:09:35.188Z,9.95
2022-09-25T22:14:39.570Z,9.38
2022-09-25T22:19:42.063Z,9.30
2022-09-25T22:24:44.548Z,9.05
2022-09-25T22:29:48.637Z,7.80
2022-09-25T22:34:51.068Z,8.88
2022-09-25T22:39:53.505Z,9.27
2022-09-25T22:44:57.544Z,9.52
2022-09-25T22:50:00.355Z,8.85
2022-09-25T22:55:03.323Z,8.05
2022-09-25T23:00:08.983Z,8.15
2022-09-25T23:05:11.470Z,7.55
2022-09-25T23:10:14.054Z,8.65
2022-09-25T23:15:18.096Z,8.77
2022-09-25T23:20:20.531Z,8.40
2022-09-25T23:25:23.501Z,7.47
2022-09-25T23:30:27.872Z,7.88
2022-09-25T23:40:36.977Z,7.90
2022-09-25T23:45:42.142Z,7.80
2022-09-25T23:50:44.986Z,7.68
2022-09-25T23:55:47.552Z,8.10
